sensor_id;sensor_type;location;lat;lon;timestamp;P1;durP1;ratioP1;P2;durP2;ratioP2
4636;SDS011;2331;48.806;9.140;2023-04-01T00:01:00;2.22;;;0.80;;
4636;SDS011;2331;48.806;9.140;2023-04-01T00:03:27;1.58;;;0.70;;
4636;SDS011;2331;48.806;9.140;2023-04-01T00:05:54;1.40;;;0.70;;
4636;SDS011;2331;48.806;9.140;2023-04-01T00:08:23;3.38;;;0.70;;
4636;SDS011;2331;48.806;9.140;2023-04-01T00:10:50;2.65;;;0.65;;
4636;SDS011;2331;48.806;9.140;2023-04-01T00:13:17;4.40;;;1.00;;
4636;SDS011;2331;48.806;9.140;2023-04-01T00:15:43;1.00;;;0.60;;
4636;SDS011;2331;48.806;9.140;2023-04-01T00:18:11;3.92;;;0.85;;
4636;SDS011;2331;48.806;9.140;2023-04-01T00:20:38;3.10;;;0.80;;
4636;SDS011;2331;48.806;9.140;2023-04-01T00:23:08;1.17;;;0.50;;
4636;SDS011;2331;48.806;9.140;2023-04-01T00:25:37;2.03;;;0.95;;
4636;SDS011;2331;48.806;9.140;2023-04-01T00:28:03;1.23;;;0.70;;
4636;SDS011;2331;48.806;9.140;2023-04-01T00:30:30;3.03;;;0.90;;
4636;SDS011;2331;48.806;9.140;2023-04-01T00:32:57;3.22;;;0.88;;
4636;SDS011;2331;48.806;9.140;2023-04-01T00:35:23;2.58;;;1.17;;
4636;SDS011;2331;48.806;9.140;2023-04-01T00:37:50;5.45;;;1.48;;
4636;SDS011;2331;48.806;9.140;2023-04-01T00:40:22;5.03;;;0.98;;
4636;SDS011;2331;48.806;9.140;2023-04-01T00:42:53;1.98;;;0.88;;
4636;SDS011;2331;48.806;9.140;2023-04-01T00:45:24;1.52;;;0.80;;
4636;SDS011;2331;48.806;9.140;2023-04-01T00:47:56;2.35;;;0.60;;
4636;SDS011;2331;48.806;9.140;2023-04-01T00:50:25;2.47;;;0.90;;
4636;SDS011;2331;48.806;9.140;2023-04-01T00:52:54;2.78;;;0.95;;
4636;SDS011;2331;48.806;9.140;2023-04-01T00:55:21;2.22;;;0.90;;
4636;SDS011;2331;48.806;9.140;2023-04-01T00:57:49;1.48;;;0.88;;
4636;SDS011;2331;48.806;9.140;2023-04-01T01:00:20;3.50;;;0.93;;
4636;SDS011;2331;48.806;9.140;2023-04-01T01:02:47;2.45;;;0.80;;
4636;SDS011;2331;48.806;9.140;2023-04-01T01:05:16;5.57;;;1.10;;
4636;SDS011;2331;48.806;9.140;2023-04-01T01:07:45;1.98;;;1.00;;
4636;SDS011;2331;48.806;9.140;2023-04-01T01:10:20;2.88;;;0.77;;
4636;SDS011;2331;48.806;9.140;2023-04-01T01:12:53;9.88;;;1.20;;
4636;SDS011;2331;48.806;9.140;2023-04-01T01:15:27;4.00;;;1.00;;
4636;SDS011;2331;48.806;9.140;2023-04-01T01:17:59;4.95;;;0.93;;
4636;SDS011;2331;48.806;9.140;2023-04-01T01:20:53;3.70;;;0.93;;
4636;SDS011;2331;48.806;9.140;2023-04-01T01:26:51;1.90;;;0.80;;
4636;SDS011;2331;48.806;9.140;2023-04-01T01:29:41;2.10;;;0.80;;
4636;SDS011;2331;48.806;9.140;2023-04-01T01:32:30;3.10;;;1.00;;
4636;SDS011;2331;48.806;9.140;2023-04-01T01:35:24;2.40;;;0.88;;
4636;SDS011;2331;48.806;9.140;2023-04-01T01:37:55;5.32;;;0.90;;
4636;SDS011;2331;48.806;9.140;2023-04-01T01:40:24;3.35;;;1.02;;
4636;SDS011;2331;48.806;9.140;2023-04-01T01:42:54;3.13;;;0.93;;
4636;SDS011;2331;48.806;9.140;2023-04-01T01:45:23;2.38;;;0.90;;
4636;SDS011;2331;48.806;9.140;2023-04-01T01:47:52;4.00;;;1.00;;
4636;SDS011;2331;48.806;9.140;2023-04-01T01:50:19;4.72;;;1.30;;
4636;SDS011;2331;48.806;9.140;2023-04-01T01:52:49;2.25;;;0.90;;
4636;SDS011;2331;48.806;9.140;2023-04-01T01:55:26;3.90;;;0.80;;
4636;SDS011;2331;48.806;9.140;2023-04-01T01:57:56;3.17;;;0.75;;
4636;SDS011;2331;48.806;9.140;2023-04-01T02:00:26;4.13;;;1.15;;
4636;SDS011;2331;48.806;9.140;2023-04-01T02:02:54;2.45;;;0.63;;
4636;SDS011;2331;48.806;9.140;2023-04-01T02:05:24;2.22;;;0.85;;
4636;SDS011;2331;48.806;9.140;2023-04-01T02:07:57;2.80;;;1.13;;
4636;SDS011;2331;48.806;9.140;2023-04-01T02:10:27;3.03;;;1.05;;
4636;SDS011;2331;48.806;9.140;2023-04-01T02:12:58;1.83;;;0.60;;
4636;SDS011;2331;48.806;9.140;2023-04-01T02:15:28;1.70;;;0.60;;
4636;SDS011;2331;48.806;9.140;2023-04-01T02:17:58;2.50;;;1.00;;
4636;SDS011;2331;48.806;9.140;2023-04-01T02:20:25;1.20;;;0.60;;
4636;SDS011;2331;48.806;9.140;2023-04-01T02:22:56;2.10;;;0.80;;
4636;SDS011;2331;48.806;9.140;2023-04-01T02:25:25;5.03;;;0.80;;
4636;SDS011;2331;48.806;9.140;2023-04-01T02:27:54;6.22;;;0.80;;
4636;SDS011;2331;48.806;9.140;2023-04-01T02:30:23;2.90;;;0.70;;
4636;SDS011;2331;48.806;9.140;2023-04-01T02:32:53;1.90;;;0.80;;
4636;SDS011;2331;48.806;9.140;2023-04-01T02:35:22;1.60;;;0.60;;
4636;SDS011;2331;48.806;9.140;2023-04-01T02:37:49;1.02;;;0.60;;
4636;SDS011;2331;48.806;9.140;2023-04-01T02:40:19;1.92;;;0.82;;
4636;SDS011;2331;48.806;9.140;2023-04-01T02:42:46;1.25;;;0.60;;
4636;SDS011;2331;48.806;9.140;2023-04-01T02:45:13;0.90;;;0.50;;
4636;SDS011;2331;48.806;9.140;2023-04-01T02:47:40;5.68;;;0.90;;
4636;SDS011;2331;48.806;9.140;2023-04-01T02:50:07;1.30;;;0.77;;
4636;SDS011;2331;48.806;9.140;2023-04-01T02:52:35;1.58;;;0.52;;
4636;SDS011;2331;48.806;9.140;2023-04-01T02:55:02;1.65;;;0.60;;
4636;SDS011;2331;48.806;9.140;2023-04-01T02:57:30;1.90;;;0.63;;
4636;SDS011;2331;48.806;9.140;2023-04-01T02:59:57;2.03;;;0.50;;
4636;SDS011;2331;48.806;9.140;2023-04-01T03:02:24;2.20;;;0.60;;
4636;SDS011;2331;48.806;9.140;2023-04-01T03:04:50;1.50;;;0.57;;
4636;SDS011;2331;48.806;9.140;2023-04-01T03:07:18;0.95;;;0.55;;
4636;SDS011;2331;48.806;9.140;2023-04-01T03:09:45;2.13;;;0.55;;
4636;SDS011;2331;48.806;9.140;2023-04-01T03:12:12;1.50;;;0.70;;
4636;SDS011;2331;48.806;9.140;2023-04-01T03:14:40;0.80;;;0.60;;
4636;SDS011;2331;48.806;9.140;2023-04-01T03:17:06;2.78;;;0.80;;
4636;SDS011;2331;48.806;9.140;2023-04-01T03:19:33;1.23;;;0.60;;
4636;SDS011;2331;48.806;9.140;2023-04-01T03:22:00;1.70;;;0.80;;
4636;SDS011;2331;48.806;9.140;2023-04-01T03:24:26;1.75;;;0.60;;
4636;SDS011;2331;48.806;9.140;2023-04-01T03:26:53;1.15;;;0.60;;
4636;SDS011;2331;48.806;9.140;2023-04-01T03:29:20;1.10;;;0.50;;
4636;SDS011;2331;48.806;9.140;2023-04-01T03:31:47;1.70;;;0.50;;
4636;SDS011;2331;48.806;9.140;2023-04-01T03:34:14;1.55;;;0.52;;
4636;SDS011;2331;48.806;9.140;2023-04-01T03:36:41;2.15;;;0.60;;
4636;SDS011;2331;48.806;9.140;2023-04-01T03:39:07;1.63;;;0.52;;
4636;SDS011;2331;48.806;9.140;2023-04-01T03:41:35;1.25;;;0.50;;
4636;SDS011;2331;48.806;9.140;2023-04-01T03:44:03;2.05;;;0.60;;
4636;SDS011;2331;48.806;9.140;2023-04-01T03:46:29;2.90;;;0.85;;
4636;SDS011;2331;48.806;9.140;2023-04-01T03:48:57;0.80;;;0.60;;
4636;SDS011;2331;48.806;9.140;2023-04-01T03:51:24;3.22;;;0.85;;
4636;SDS011;2331;48.806;9.140;2023-04-01T03:53:51;1.40;;;0.50;;
4636;SDS011;2331;48.806;9.140;2023-04-01T03:56:17;1.13;;;0.40;;
4636;SDS011;2331;48.806;9.140;2023-04-01T03:58:44;1.00;;;0.50;;
4636;SDS011;2331;48.806;9.140;2023-04-01T04:01:15;1.55;;;0.68;;
4636;SDS011;2331;48.806;9.140;2023-04-01T04:03:42;1.45;;;0.60;;
4636;SDS011;2331;48.806;9.140;2023-04-01T04:06:12;1.75;;;0.70;;
4636;SDS011;2331;48.806;9.140;2023-04-01T04:08:39;2.80;;;0.60;;
4636;SDS011;2331;48.806;9.140;2023-04-01T04:11:06;3.22;;;0.70;;
4636;SDS011;2331;48.806;9.140;2023-04-01T04:13:33;1.65;;;0.70;;
4636;SDS011;2331;48.806;9.140;2023-04-01T04:16:00;1.08;;;0.50;;
4636;SDS011;2331;48.806;9.140;2023-04-01T04:18:27;1.95;;;0.80;;
4636;SDS011;2331;48.806;9.140;2023-04-01T04:20:54;1.27;;;0.73;;
4636;SDS011;2331;48.806;9.140;2023-04-01T04:23:22;4.60;;;0.88;;
4636;SDS011;2331;48.806;9.140;2023-04-01T04:25:53;3.80;;;0.85;;
4636;SDS011;2331;48.806;9.140;2023-04-01T04:28:21;2.78;;;0.60;;
4636;SDS011;2331;48.806;9.140;2023-04-01T04:30:48;1.65;;;0.63;;
4636;SDS011;2331;48.806;9.140;2023-04-01T04:33:15;2.20;;;0.70;;
4636;SDS011;2331;48.806;9.140;2023-04-01T04:35:41;1.58;;;0.60;;
4636;SDS011;2331;48.806;9.140;2023-04-01T04:38:08;1.58;;;0.70;;
4636;SDS011;2331;48.806;9.140;2023-04-01T04:40:37;2.33;;;0.80;;
4636;SDS011;2331;48.806;9.140;2023-04-01T04:43:03;2.28;;;0.70;;
4636;SDS011;2331;48.806;9.140;2023-04-01T04:45:30;2.83;;;0.85;;
4636;SDS011;2331;48.806;9.140;2023-04-01T04:47:57;1.17;;;0.68;;
4636;SDS011;2331;48.806;9.140;2023-04-01T04:50:24;2.28;;;0.60;;
4636;SDS011;2331;48.806;9.140;2023-04-01T04:52:51;0.90;;;0.50;;
4636;SDS011;2331;48.806;9.140;2023-04-01T04:55:17;2.05;;;0.55;;
4636;SDS011;2331;48.806;9.140;2023-04-01T04:57:46;3.00;;;0.93;;
4636;SDS011;2331;48.806;9.140;2023-04-01T05:00:13;1.15;;;0.80;;
4636;SDS011;2331;48.806;9.140;2023-04-01T05:02:39;1.63;;;0.70;;
4636;SDS011;2331;48.806;9.140;2023-04-01T05:05:06;2.80;;;1.00;;
4636;SDS011;2331;48.806;9.140;2023-04-01T05:07:33;4.00;;;0.77;;
4636;SDS011;2331;48.806;9.140;2023-04-01T05:10:00;2.30;;;0.60;;
4636;SDS011;2331;48.806;9.140;2023-04-01T05:12:27;2.45;;;0.80;;
4636;SDS011;2331;48.806;9.140;2023-04-01T05:14:55;1.35;;;0.70;;
4636;SDS011;2331;48.806;9.140;2023-04-01T05:17:22;4.53;;;0.57;;
4636;SDS011;2331;48.806;9.140;2023-04-01T05:19:48;2.10;;;0.88;;
4636;SDS011;2331;48.806;9.140;2023-04-01T05:22:15;1.92;;;0.80;;
4636;SDS011;2331;48.806;9.140;2023-04-01T05:24:42;2.35;;;0.73;;
4636;SDS011;2331;48.806;9.140;2023-04-01T05:27:08;1.58;;;0.70;;
4636;SDS011;2331;48.806;9.140;2023-04-01T05:29:35;1.40;;;0.93;;
4636;SDS011;2331;48.806;9.140;2023-04-01T05:32:03;3.28;;;0.90;;
4636;SDS011;2331;48.806;9.140;2023-04-01T05:34:30;3.38;;;0.80;;
4636;SDS011;2331;48.806;9.140;2023-04-01T05:36:56;1.58;;;0.82;;
4636;SDS011;2331;48.806;9.140;2023-04-01T05:39:23;2.17;;;0.80;;
4636;SDS011;2331;48.806;9.140;2023-04-01T05:41:50;2.92;;;0.90;;
4636;SDS011;2331;48.806;9.140;2023-04-01T05:44:16;0.82;;;0.55;;
4636;SDS011;2331;48.806;9.140;2023-04-01T05:46:43;4.25;;;0.82;;
4636;SDS011;2331;48.806;9.140;2023-04-01T05:49:11;3.75;;;1.20;;
4636;SDS011;2331;48.806;9.140;2023-04-01T05:51:38;2.97;;;0.60;;
4636;SDS011;2331;48.806;9.140;2023-04-01T05:54:04;4.93;;;0.90;;
4636;SDS011;2331;48.806;9.140;2023-04-01T05:56:31;2.05;;;0.73;;
4636;SDS011;2331;48.806;9.140;2023-04-01T05:58:58;2.08;;;0.70;;
4636;SDS011;2331;48.806;9.140;2023-04-01T06:01:25;2.50;;;0.73;;
4636;SDS011;2331;48.806;9.140;2023-04-01T06:03:51;2.13;;;0.80;;
4636;SDS011;2331;48.806;9.140;2023-04-01T06:06:22;5.18;;;1.00;;
4636;SDS011;2331;48.806;9.140;2023-04-01T06:08:50;1.00;;;0.60;;
4636;SDS011;2331;48.806;9.140;2023-04-01T06:11:19;4.30;;;0.90;;
4636;SDS011;2331;48.806;9.140;2023-04-01T06:13:56;2.03;;;0.60;;
4636;SDS011;2331;48.806;9.140;2023-04-01T06:16:39;2.55;;;0.90;;
4636;SDS011;2331;48.806;9.140;2023-04-01T06:19:18;1.52;;;0.60;;
4636;SDS011;2331;48.806;9.140;2023-04-01T06:22:03;1.45;;;0.68;;
4636;SDS011;2331;48.806;9.140;2023-04-01T06:24:57;2.08;;;0.60;;
4636;SDS011;2331;48.806;9.140;2023-04-01T06:27:38;1.25;;;0.60;;
4636;SDS011;2331;48.806;9.140;2023-04-01T06:30:21;3.92;;;0.82;;
4636;SDS011;2331;48.806;9.140;2023-04-01T06:33:09;1.50;;;0.70;;
4636;SDS011;2331;48.806;9.140;2023-04-01T06:36:03;2.08;;;0.60;;
4636;SDS011;2331;48.806;9.140;2023-04-01T06:38:56;1.73;;;0.77;;
4636;SDS011;2331;48.806;9.140;2023-04-01T06:41:45;1.88;;;0.70;;
4636;SDS011;2331;48.806;9.140;2023-04-01T06:44:33;2.75;;;0.60;;
4636;SDS011;2331;48.806;9.140;2023-04-01T06:47:10;2.55;;;0.80;;
4636;SDS011;2331;48.806;9.140;2023-04-01T06:49:49;2.08;;;0.77;;
4636;SDS011;2331;48.806;9.140;2023-04-01T06:52:23;1.90;;;0.70;;
4636;SDS011;2331;48.806;9.140;2023-04-01T06:54:58;2.30;;;0.90;;
4636;SDS011;2331;48.806;9.140;2023-04-01T06:57:29;2.83;;;0.85;;
4636;SDS011;2331;48.806;9.140;2023-04-01T07:00:00;1.48;;;0.80;;
4636;SDS011;2331;48.806;9.140;2023-04-01T07:02:37;1.70;;;0.50;;
4636;SDS011;2331;48.806;9.140;2023-04-01T07:05:08;2.40;;;0.70;;
4636;SDS011;2331;48.806;9.140;2023-04-01T07:07:38;3.05;;;0.70;;
4636;SDS011;2331;48.806;9.140;2023-04-01T07:10:12;2.70;;;0.70;;
4636;SDS011;2331;48.806;9.140;2023-04-01T07:12:43;1.52;;;0.60;;
4636;SDS011;2331;48.806;9.140;2023-04-01T07:15:14;1.30;;;0.70;;
4636;SDS011;2331;48.806;9.140;2023-04-01T07:17:45;2.22;;;0.70;;
4636;SDS011;2331;48.806;9.140;2023-04-01T07:20:20;0.77;;;0.50;;
4636;SDS011;2331;48.806;9.140;2023-04-01T07:22:51;1.92;;;1.02;;
4636;SDS011;2331;48.806;9.140;2023-04-01T07:25:22;1.60;;;0.50;;
4636;SDS011;2331;48.806;9.140;2023-04-01T07:27:52;1.63;;;0.50;;
4636;SDS011;2331;48.806;9.140;2023-04-01T07:30:22;3.83;;;0.52;;
4636;SDS011;2331;48.806;9.140;2023-04-01T07:32:51;1.20;;;0.80;;
4636;SDS011;2331;48.806;9.140;2023-04-01T07:35:25;1.42;;;0.55;;
4636;SDS011;2331;48.806;9.140;2023-04-01T07:38:03;1.75;;;0.60;;
4636;SDS011;2331;48.806;9.140;2023-04-01T07:40:42;2.40;;;0.90;;
4636;SDS011;2331;48.806;9.140;2023-04-01T07:43:17;1.90;;;0.80;;
4636;SDS011;2331;48.806;9.140;2023-04-01T07:45:54;1.30;;;0.70;;
4636;SDS011;2331;48.806;9.140;2023-04-01T07:48:30;2.15;;;0.68;;
4636;SDS011;2331;48.806;9.140;2023-04-01T07:51:06;3.95;;;1.08;;
4636;SDS011;2331;48.806;9.140;2023-04-01T07:53:42;2.53;;;0.80;;
4636;SDS011;2331;48.806;9.140;2023-04-01T07:56:14;1.75;;;0.75;;
4636;SDS011;2331;48.806;9.140;2023-04-01T07:58:49;2.75;;;0.70;;
4636;SDS011;2331;48.806;9.140;2023-04-01T08:01:26;1.55;;;0.70;;
4636;SDS011;2331;48.806;9.140;2023-04-01T08:04:04;0.70;;;0.52;;
4636;SDS011;2331;48.806;9.140;2023-04-01T08:06:43;1.42;;;0.93;;
4636;SDS011;2331;48.806;9.140;2023-04-01T08:09:17;1.13;;;0.60;;
4636;SDS011;2331;48.806;9.140;2023-04-01T08:11:56;1.70;;;0.90;;
4636;SDS011;2331;48.806;9.140;2023-04-01T08:14:30;2.03;;;0.60;;
4636;SDS011;2331;48.806;9.140;2023-04-01T08:17:04;1.77;;;1.10;;
4636;SDS011;2331;48.806;9.140;2023-04-01T08:19:40;1.98;;;0.50;;
4636;SDS011;2331;48.806;9.140;2023-04-01T08:22:19;1.08;;;0.60;;
4636;SDS011;2331;48.806;9.140;2023-04-01T08:24:52;1.50;;;0.57;;
4636;SDS011;2331;48.806;9.140;2023-04-01T08:27:27;3.33;;;1.00;;
4636;SDS011;2331;48.806;9.140;2023-04-01T08:30:01;1.98;;;0.70;;
4636;SDS011;2331;48.806;9.140;2023-04-01T08:32:32;1.42;;;0.60;;
4636;SDS011;2331;48.806;9.140;2023-04-01T08:35:07;1.30;;;0.50;;
4636;SDS011;2331;48.806;9.140;2023-04-01T08:37:36;1.75;;;0.60;;
4636;SDS011;2331;48.806;9.140;2023-04-01T08:40:14;1.70;;;0.80;;
4636;SDS011;2331;48.806;9.140;2023-04-01T08:43:07;1.30;;;1.00;;
4636;SDS011;2331;48.806;9.140;2023-04-01T08:45:41;2.20;;;0.70;;
4636;SDS011;2331;48.806;9.140;2023-04-01T08:48:23;2.85;;;0.80;;
4636;SDS011;2331;48.806;9.140;2023-04-01T08:56:55;1.10;;;0.50;;
4636;SDS011;2331;48.806;9.140;2023-04-01T08:59:30;0.98;;;0.73;;
4636;SDS011;2331;48.806;9.140;2023-04-01T09:02:16;1.60;;;0.82;;
4636;SDS011;2331;48.806;9.140;2023-04-01T09:08:08;1.92;;;0.60;;
4636;SDS011;2331;48.806;9.140;2023-04-01T09:10:54;1.55;;;0.70;;
4636;SDS011;2331;48.806;9.140;2023-04-01T09:13:31;2.47;;;0.75;;
4636;SDS011;2331;48.806;9.140;2023-04-01T09:16:29;1.38;;;0.60;;
4636;SDS011;2331;48.806;9.140;2023-04-01T09:19:26;1.08;;;0.50;;
4636;SDS011;2331;48.806;9.140;2023-04-01T09:22:06;2.35;;;0.75;;
4636;SDS011;2331;48.806;9.140;2023-04-01T09:24:57;1.58;;;0.52;;
4636;SDS011;2331;48.806;9.140;2023-04-01T09:27:41;1.58;;;0.50;;
4636;SDS011;2331;48.806;9.140;2023-04-01T09:30:20;0.77;;;0.50;;
4636;SDS011;2331;48.806;9.140;2023-04-01T09:33:20;1.38;;;0.60;;
4636;SDS011;2331;48.806;9.140;2023-04-01T09:36:11;1.23;;;0.60;;
4636;SDS011;2331;48.806;9.140;2023-04-01T09:38:52;1.30;;;0.52;;
4636;SDS011;2331;48.806;9.140;2023-04-01T09:41:27;2.53;;;0.60;;
4636;SDS011;2331;48.806;9.140;2023-04-01T09:44:02;4.30;;;0.70;;
4636;SDS011;2331;48.806;9.140;2023-04-01T09:46:34;0.80;;;0.50;;
4636;SDS011;2331;48.806;9.140;2023-04-01T09:49:17;0.60;;;0.40;;
4636;SDS011;2331;48.806;9.140;2023-04-01T09:52:00;0.95;;;0.52;;
4636;SDS011;2331;48.806;9.140;2023-04-01T09:54:39;0.63;;;0.40;;
4636;SDS011;2331;48.806;9.140;2023-04-01T09:57:37;1.17;;;0.40;;
4636;SDS011;2331;48.806;9.140;2023-04-01T10:00:22;1.23;;;0.50;;
4636;SDS011;2331;48.806;9.140;2023-04-01T10:03:12;0.80;;;0.40;;
4636;SDS011;2331;48.806;9.140;2023-04-01T10:09:18;0.60;;;0.40;;
4636;SDS011;2331;48.806;9.140;2023-04-01T10:12:39;0.80;;;0.40;;
4636;SDS011;2331;48.806;9.140;2023-04-01T10:16:01;0.80;;;0.50;;
4636;SDS011;2331;48.806;9.140;2023-04-01T10:18:48;0.60;;;0.40;;
4636;SDS011;2331;48.806;9.140;2023-04-01T10:21:47;0.70;;;0.50;;
4636;SDS011;2331;48.806;9.140;2023-04-01T10:24:41;0.70;;;0.40;;
4636;SDS011;2331;48.806;9.140;2023-04-01T10:27:33;0.88;;;0.50;;
4636;SDS011;2331;48.806;9.140;2023-04-01T10:30:31;0.60;;;0.47;;
4636;SDS011;2331;48.806;9.140;2023-04-01T10:36:54;0.93;;;0.50;;
4636;SDS011;2331;48.806;9.140;2023-04-01T10:39:49;0.60;;;0.40;;
4636;SDS011;2331;48.806;9.140;2023-04-01T10:45:52;0.90;;;0.50;;
4636;SDS011;2331;48.806;9.140;2023-04-01T10:49:02;0.60;;;0.40;;
4636;SDS011;2331;48.806;9.140;2023-04-01T10:52:08;0.65;;;0.40;;
4636;SDS011;2331;48.806;9.140;2023-04-01T10:54:58;0.98;;;0.50;;
4636;SDS011;2331;48.806;9.140;2023-04-01T10:57:45;0.60;;;0.40;;
4636;SDS011;2331;48.806;9.140;2023-04-01T11:01:03;0.60;;;0.40;;
4636;SDS011;2331;48.806;9.140;2023-04-01T11:07:35;0.63;;;0.40;;
4636;SDS011;2331;48.806;9.140;2023-04-01T11:10:37;0.95;;;0.55;;
4636;SDS011;2331;48.806;9.140;2023-04-01T11:13:38;0.60;;;0.40;;
4636;SDS011;2331;48.806;9.140;2023-04-01T11:16:38;0.63;;;0.38;;
4636;SDS011;2331;48.806;9.140;2023-04-01T11:19:35;1.17;;;0.50;;
4636;SDS011;2331;48.806;9.140;2023-04-01T11:22:32;0.60;;;0.40;;
4636;SDS011;2331;48.806;9.140;2023-04-01T11:25:22;0.70;;;0.40;;
4636;SDS011;2331;48.806;9.140;2023-04-01T11:31:11;0.70;;;0.43;;
4636;SDS011;2331;48.806;9.140;2023-04-01T11:33:49;1.08;;;0.50;;
4636;SDS011;2331;48.806;9.140;2023-04-01T11:36:22;0.60;;;0.40;;
4636;SDS011;2331;48.806;9.140;2023-04-01T11:39:01;0.60;;;0.40;;
4636;SDS011;2331;48.806;9.140;2023-04-01T11:41:45;0.88;;;0.50;;
4636;SDS011;2331;48.806;9.140;2023-04-01T11:44:22;0.80;;;0.40;;
4636;SDS011;2331;48.806;9.140;2023-04-01T11:47:05;0.70;;;0.40;;
4636;SDS011;2331;48.806;9.140;2023-04-01T11:52:52;0.70;;;0.40;;
4636;SDS011;2331;48.806;9.140;2023-04-01T11:55:28;0.60;;;0.40;;
4636;SDS011;2331;48.806;9.140;2023-04-01T11:58:09;0.50;;;0.30;;
4636;SDS011;2331;48.806;9.140;2023-04-01T12:03:39;1.00;;;0.38;;
4636;SDS011;2331;48.806;9.140;2023-04-01T12:06:30;0.70;;;0.50;;
4636;SDS011;2331;48.806;9.140;2023-04-01T12:09:04;1.00;;;0.40;;
4636;SDS011;2331;48.806;9.140;2023-04-01T12:11:41;0.80;;;0.40;;
4636;SDS011;2331;48.806;9.140;2023-04-01T12:14:16;0.70;;;0.40;;
4636;SDS011;2331;48.806;9.140;2023-04-01T12:16:50;1.02;;;0.50;;
4636;SDS011;2331;48.806;9.140;2023-04-01T12:19:26;1.55;;;0.50;;
4636;SDS011;2331;48.806;9.140;2023-04-01T12:22:03;0.60;;;0.40;;
4636;SDS011;2331;48.806;9.140;2023-04-01T12:24:46;0.82;;;0.40;;
4636;SDS011;2331;48.806;9.140;2023-04-01T12:27:27;0.80;;;0.40;;
4636;SDS011;2331;48.806;9.140;2023-04-01T12:30:13;0.60;;;0.40;;
4636;SDS011;2331;48.806;9.140;2023-04-01T12:33:14;0.90;;;0.50;;
4636;SDS011;2331;48.806;9.140;2023-04-01T12:36:02;1.23;;;0.40;;
4636;SDS011;2331;48.806;9.140;2023-04-01T12:38:43;0.60;;;0.32;;
4636;SDS011;2331;48.806;9.140;2023-04-01T12:41:22;0.68;;;0.40;;
4636;SDS011;2331;48.806;9.140;2023-04-01T12:44:02;0.60;;;0.38;;
4636;SDS011;2331;48.806;9.140;2023-04-01T12:46:54;0.70;;;0.50;;
4636;SDS011;2331;48.806;9.140;2023-04-01T12:49:53;0.60;;;0.40;;
4636;SDS011;2331;48.806;9.140;2023-04-01T12:52:35;0.60;;;0.40;;
4636;SDS011;2331;48.806;9.140;2023-04-01T12:55:17;1.73;;;0.40;;
4636;SDS011;2331;48.806;9.140;2023-04-01T12:58:17;0.60;;;0.40;;
4636;SDS011;2331;48.806;9.140;2023-04-01T13:04:17;0.80;;;0.40;;
4636;SDS011;2331;48.806;9.140;2023-04-01T13:07:15;0.70;;;0.40;;
4636;SDS011;2331;48.806;9.140;2023-04-01T13:09:56;0.85;;;0.40;;
4636;SDS011;2331;48.806;9.140;2023-04-01T13:12:43;0.60;;;0.40;;
4636;SDS011;2331;48.806;9.140;2023-04-01T13:15:25;0.60;;;0.40;;
4636;SDS011;2331;48.806;9.140;2023-04-01T13:17:58;0.70;;;0.43;;
4636;SDS011;2331;48.806;9.140;2023-04-01T13:20:41;0.70;;;0.40;;
4636;SDS011;2331;48.806;9.140;2023-04-01T13:23:21;0.60;;;0.40;;
4636;SDS011;2331;48.806;9.140;2023-04-01T13:26:00;2.35;;;0.40;;
4636;SDS011;2331;48.806;9.140;2023-04-01T13:28:33;0.70;;;0.50;;
4636;SDS011;2331;48.806;9.140;2023-04-01T13:31:05;0.70;;;0.40;;
4636;SDS011;2331;48.806;9.140;2023-04-01T13:33:42;0.60;;;0.40;;
4636;SDS011;2331;48.806;9.140;2023-04-01T13:36:18;0.60;;;0.30;;
4636;SDS011;2331;48.806;9.140;2023-04-01T13:38:55;0.60;;;0.40;;
4636;SDS011;2331;48.806;9.140;2023-04-01T13:41:59;0.60;;;0.40;;
4636;SDS011;2331;48.806;9.140;2023-04-01T13:44:40;0.60;;;0.40;;
4636;SDS011;2331;48.806;9.140;2023-04-01T13:53:23;0.68;;;0.40;;
4636;SDS011;2331;48.806;9.140;2023-04-01T13:56:15;0.70;;;0.47;;
4636;SDS011;2331;48.806;9.140;2023-04-01T13:58:55;0.60;;;0.40;;
4636;SDS011;2331;48.806;9.140;2023-04-01T14:01:32;0.70;;;0.40;;
4636;SDS011;2331;48.806;9.140;2023-04-01T14:04:14;0.75;;;0.47;;
4636;SDS011;2331;48.806;9.140;2023-04-01T14:06:57;0.70;;;0.35;;
4636;SDS011;2331;48.806;9.140;2023-04-01T14:09:34;0.60;;;0.40;;
4636;SDS011;2331;48.806;9.140;2023-04-01T14:12:13;0.60;;;0.38;;
4636;SDS011;2331;48.806;9.140;2023-04-01T14:14:55;1.10;;;0.50;;
4636;SDS011;2331;48.806;9.140;2023-04-01T14:17:43;0.70;;;0.40;;
4636;SDS011;2331;48.806;9.140;2023-04-01T14:20:29;0.60;;;0.40;;
4636;SDS011;2331;48.806;9.140;2023-04-01T14:23:13;1.15;;;0.40;;
4636;SDS011;2331;48.806;9.140;2023-04-01T14:26:06;1.95;;;0.40;;
4636;SDS011;2331;48.806;9.140;2023-04-01T14:28:41;1.00;;;0.60;;
4636;SDS011;2331;48.806;9.140;2023-04-01T14:31:20;0.60;;;0.40;;
4636;SDS011;2331;48.806;9.140;2023-04-01T14:34:03;0.60;;;0.40;;
4636;SDS011;2331;48.806;9.140;2023-04-01T14:36:46;0.70;;;0.40;;
4636;SDS011;2331;48.806;9.140;2023-04-01T14:39:28;1.42;;;0.50;;
4636;SDS011;2331;48.806;9.140;2023-04-01T14:42:09;1.00;;;0.50;;
4636;SDS011;2331;48.806;9.140;2023-04-01T14:44:51;0.60;;;0.40;;
4636;SDS011;2331;48.806;9.140;2023-04-01T14:47:42;0.60;;;0.40;;
4636;SDS011;2331;48.806;9.140;2023-04-01T14:50:12;0.60;;;0.40;;
4636;SDS011;2331;48.806;9.140;2023-04-01T14:52:43;0.70;;;0.50;;
4636;SDS011;2331;48.806;9.140;2023-04-01T14:55:19;0.60;;;0.40;;
4636;SDS011;2331;48.806;9.140;2023-04-01T14:57:59;0.60;;;0.40;;
4636;SDS011;2331;48.806;9.140;2023-04-01T15:00:37;0.60;;;0.40;;
4636;SDS011;2331;48.806;9.140;2023-04-01T15:03:13;0.73;;;0.40;;
4636;SDS011;2331;48.806;9.140;2023-04-01T15:05:45;0.60;;;0.40;;
4636;SDS011;2331;48.806;9.140;2023-04-01T15:08:16;0.75;;;0.40;;
4636;SDS011;2331;48.806;9.140;2023-04-01T15:16:52;0.60;;;0.40;;
4636;SDS011;2331;48.806;9.140;2023-04-01T15:19:34;0.60;;;0.40;;
4636;SDS011;2331;48.806;9.140;2023-04-01T15:22:15;1.10;;;0.50;;
4636;SDS011;2331;48.806;9.140;2023-04-01T15:25:00;0.80;;;0.50;;
4636;SDS011;2331;48.806;9.140;2023-04-01T15:27:40;1.13;;;0.40;;
4636;SDS011;2331;48.806;9.140;2023-04-01T15:33:18;0.70;;;0.40;;
4636;SDS011;2331;48.806;9.140;2023-04-01T15:35:57;0.60;;;0.40;;
4636;SDS011;2331;48.806;9.140;2023-04-01T15:38:35;0.73;;;0.60;;
4636;SDS011;2331;48.806;9.140;2023-04-01T15:41:11;0.70;;;0.40;;
4636;SDS011;2331;48.806;9.140;2023-04-01T15:43:42;1.00;;;0.50;;
4636;SDS011;2331;48.806;9.140;2023-04-01T15:46:22;0.68;;;0.50;;
4636;SDS011;2331;48.806;9.140;2023-04-01T15:49:10;2.30;;;0.52;;
4636;SDS011;2331;48.806;9.140;2023-04-01T15:51:48;0.88;;;0.40;;
4636;SDS011;2331;48.806;9.140;2023-04-01T15:54:26;0.60;;;0.40;;
4636;SDS011;2331;48.806;9.140;2023-04-01T15:57:15;0.68;;;0.45;;
4636;SDS011;2331;48.806;9.140;2023-04-01T16:00:00;0.60;;;0.40;;
4636;SDS011;2331;48.806;9.140;2023-04-01T16:02:36;0.65;;;0.40;;
4636;SDS011;2331;48.806;9.140;2023-04-01T16:05:15;0.68;;;0.40;;
4636;SDS011;2331;48.806;9.140;2023-04-01T16:07:55;1.42;;;0.50;;
4636;SDS011;2331;48.806;9.140;2023-04-01T16:10:37;1.83;;;0.50;;
4636;SDS011;2331;48.806;9.140;2023-04-01T16:13:19;0.80;;;0.50;;
4636;SDS011;2331;48.806;9.140;2023-04-01T16:15:57;0.82;;;0.50;;
4636;SDS011;2331;48.806;9.140;2023-04-01T16:18:33;0.95;;;0.50;;
4636;SDS011;2331;48.806;9.140;2023-04-01T16:21:24;0.70;;;0.40;;
4636;SDS011;2331;48.806;9.140;2023-04-01T16:24:02;0.60;;;0.40;;
4636;SDS011;2331;48.806;9.140;2023-04-01T16:26:39;2.70;;;0.60;;
4636;SDS011;2331;48.806;9.140;2023-04-01T16:29:17;0.70;;;0.40;;
4636;SDS011;2331;48.806;9.140;2023-04-01T16:31:52;0.95;;;0.50;;
4636;SDS011;2331;48.806;9.140;2023-04-01T16:34:26;0.82;;;0.50;;
4636;SDS011;2331;48.806;9.140;2023-04-01T16:37:00;0.88;;;0.50;;
4636;SDS011;2331;48.806;9.140;2023-04-01T16:39:33;0.90;;;0.47;;
4636;SDS011;2331;48.806;9.140;2023-04-01T16:42:20;1.25;;;0.40;;
4636;SDS011;2331;48.806;9.140;2023-04-01T16:44:53;0.70;;;0.40;;
4636;SDS011;2331;48.806;9.140;2023-04-01T16:47:26;1.25;;;0.50;;
4636;SDS011;2331;48.806;9.140;2023-04-01T16:49:56;0.60;;;0.50;;
4636;SDS011;2331;48.806;9.140;2023-04-01T16:52:42;1.30;;;0.50;;
4636;SDS011;2331;48.806;9.140;2023-04-01T16:55:18;0.60;;;0.40;;
4636;SDS011;2331;48.806;9.140;2023-04-01T16:57:48;0.75;;;0.45;;
4636;SDS011;2331;48.806;9.140;2023-04-01T17:00:21;0.60;;;0.40;;
4636;SDS011;2331;48.806;9.140;2023-04-01T17:02:58;1.42;;;0.40;;
4636;SDS011;2331;48.806;9.140;2023-04-01T17:05:39;0.70;;;0.50;;